Time;durP1;ratioP1;P1;durP2;ratioP2;P2;SDS_P1;SDS_P2;PMS_P1;PMS_P2;Temp;Humidity;BMP_temperature;BMP_pressure;BME280_temperature;BME280_humidity;BME280_pressure;Samples;Min_cycle;Max_cycle;Signal;HPM_P1;HPM_P2
2022/01/22 00:00:12;;;;;;;32.20;5.80;;;6.40;99.90;;;;;;5023518;28;20038;-75
2022/01/22 00:02:38;;;;;;;26.02;5.05;;;6.40;99.90;;;;;;5025702;28;20053;-75
2022/01/22 00:05:06;;;;;;;27.17;5.65;;;6.40;99.90;;;;;;5026120;28;20526;-75
2022/01/22 00:07:32;;;;;;;27.00;5.00;;;6.40;99.90;;;;;;5010422;28;20073;-75
2022/01/22 00:10:06;;;;;;;29.83;5.90;;;6.30;99.90;;;;;;5041812;28;20087;-74
2022/01/22 00:15:21;;;;;;;25.70;5.67;;;6.40;99.90;;;;;;4976575;28;20727;-75
2022/01/22 00:17:48;;;;;;;20.83;5.27;;;6.40;99.90;;;;;;5010123;28;20507;-75
2022/01/22 00:20:16;;;;;;;32.87;6.57;;;6.50;99.90;;;;;;5026416;28;20084;-75
2022/01/22 00:22:43;;;;;;;28.77;6.00;;;6.50;99.90;;;;;;5027440;28;20038;-75
2022/01/22 00:25:10;;;;;;;27.73;5.53;;;6.50;99.90;;;;;;5010582;28;20446;-75
2022/01/22 00:27:39;;;;;;;26.87;6.50;;;6.40;99.90;;;;;;5026804;28;20045;-75
2022/01/22 00:30:06;;;;;;;23.87;5.90;;;6.50;99.90;;;;;;5025658;28;20040;-75
2022/01/22 00:32:32;;;;;;;33.30;7.50;;;6.50;99.90;;;;;;5010601;28;20057;-74
2022/01/22 00:34:58;;;;;;;23.77;6.30;;;6.50;99.90;;;;;;4998035;28;20057;-75
2022/01/22 00:37:27;;;;;;;24.13;6.10;;;6.50;99.90;;;;;;5016564;28;20039;-75
2022/01/22 00:39:53;;;;;;;29.65;7.38;;;6.50;99.90;;;;;;5031139;28;20041;-75
2022/01/22 00:42:21;;;;;;;23.80;7.63;;;6.50;99.90;;;;;;5013106;28;20071;-75
2022/01/22 00:44:49;;;;;;;28.93;7.87;;;6.50;99.90;;;;;;5030709;28;20049;-75
2022/01/22 00:47:15;;;;;;;25.90;6.43;;;6.50;99.90;;;;;;5030952;28;20135;-75
2022/01/22 00:49:41;;;;;;;32.00;6.63;;;6.50;99.90;;;;;;5031167;28;20586;-75
2022/01/22 00:52:07;;;;;;;31.50;7.07;;;6.50;99.90;;;;;;5030550;28;20695;-74
2022/01/22 00:54:32;;;;;;;28.40;7.15;;;6.50;99.90;;;;;;5000568;28;20041;-75
2022/01/22 00:56:58;;;;;;;26.47;5.97;;;6.60;99.90;;;;;;5014705;28;20037;-75
2022/01/22 00:59:24;;;;;;;27.77;6.28;;;6.60;99.90;;;;;;5031067;28;20538;-75
2022/01/22 01:01:50;;;;;;;28.83;6.37;;;6.60;99.90;;;;;;5014582;28;20419;-75
2022/01/22 01:04:16;;;;;;;22.83;4.90;;;6.60;99.90;;;;;;5030927;28;20053;-75
2022/01/22 01:06:42;;;;;;;24.90;6.00;;;6.60;99.90;;;;;;5031165;28;20052;-74
2022/01/22 01:09:10;;;;;;;25.63;5.80;;;6.60;99.90;;;;;;5026262;28;20052;-74
2022/01/22 01:11:42;;;;;;;22.95;5.05;;;6.70;99.90;;;;;;5033104;28;20411;-75
2022/01/22 01:14:10;;;;;;;22.77;5.70;;;6.60;99.90;;;;;;5015683;28;20055;-75
2022/01/22 01:33:11;;;;;;;25.83;5.30;;;6.70;99.90;;;;;;5029229;28;20037;-74
2022/01/22 01:35:39;;;;;;;23.13;5.47;;;6.70;99.90;;;;;;5023758;28;20049;-75
2022/01/22 01:38:06;;;;;;;17.73;4.63;;;6.80;99.90;;;;;;5024324;28;20073;-75
2022/01/22 01:40:35;;;;;;;20.10;4.85;;;6.80;99.90;;;;;;5008527;28;20179;-76
2022/01/22 01:43:15;;;;;;;16.80;4.63;;;6.80;99.90;;;;;;5007846;28;20041;-76
2022/01/22 01:45:40;;;;;;;18.05;5.13;;;6.80;99.90;;;;;;5012239;28;20045;-75
2022/01/22 01:48:12;;;;;;;23.02;5.05;;;6.80;99.90;;;;;;5010077;28;20044;-75
2022/01/22 01:50:40;;;;;;;21.35;5.63;;;6.80;99.90;;;;;;4993859;28;20340;-72
2022/01/22 01:53:30;;;;;;;23.23;5.00;;;6.80;99.90;;;;;;5025772;28;20044;-75
2022/01/22 01:58:30;;;;;;;20.05;5.78;;;6.70;99.90;;;;;;5007302;28;20076;-75
2022/01/22 02:00:57;;;;;;;21.33;6.30;;;6.80;99.90;;;;;;5007868;28;20042;-74
2022/01/22 02:03:24;;;;;;;22.52;6.10;;;6.80;99.90;;;;;;5023677;28;20041;-75
2022/01/22 02:05:50;;;;;;;26.80;5.63;;;6.80;99.90;;;;;;5007999;28;20176;-75
2022/01/22 02:08:17;;;;;;;21.23;5.35;;;6.80;99.90;;;;;;5026077;28;20061;-75
2022/01/22 02:10:53;;;;;;;19.77;5.17;;;6.80;99.90;;;;;;5008980;28;20049;-75
2022/01/22 02:24:19;;;;;;;15.77;4.70;;;6.80;99.90;;;;;;5023336;28;21465;-75
2022/01/22 02:26:49;;;;;;;21.95;4.80;;;6.80;99.90;;;;;;5007825;28;20995;-74
2022/01/22 02:29:16;;;;;;;;;;;6.80;99.90;;;;;;5005624;28;20076;-75
2022/01/22 02:31:54;;;;;;;14.87;3.43;;;6.90;99.90;;;;;;5004822;28;19928;-75
2022/01/22 02:34:33;;;;;;;17.30;3.97;;;6.90;99.90;;;;;;5000562;28;20045;-75
2022/01/22 02:37:04;;;;;;;18.75;4.03;;;6.80;99.90;;;;;;5022976;28;20124;-75
2022/01/22 02:39:39;;;;;;;15.53;3.30;;;6.90;99.90;;;;;;5020887;28;20048;-75
2022/01/22 02:42:05;;;;;;;15.20;3.42;;;6.80;99.90;;;;;;4992126;28;20673;-75
2022/01/22 02:44:36;;;;;;;13.82;3.50;;;6.80;99.90;;;;;;4991534;28;20068;-75
2022/01/22 02:47:08;;;;;;;16.38;3.72;;;6.80;99.90;;;;;;5017749;28;20051;-75
2022/01/22 02:49:37;;;;;;;13.33;3.40;;;6.80;99.90;;;;;;5040386;28;20703;-75
2022/01/22 02:52:07;;;;;;;18.00;3.90;;;6.70;99.90;;;;;;5026348;28;20076;-75
2022/01/22 02:54:34;;;;;;;11.85;2.95;;;6.80;99.90;;;;;;5024817;28;20124;-75
2022/01/22 02:57:00;;;;;;;14.52;3.30;;;6.80;99.90;;;;;;5010213;28;20095;-76
2022/01/22 02:59:26;;;;;;;17.40;3.50;;;6.80;99.90;;;;;;5013254;28;20049;-75
2022/01/22 03:01:52;;;;;;;13.30;3.22;;;6.80;99.90;;;;;;5035589;28;20033;-75
2022/01/22 03:04:18;;;;;;;11.32;3.00;;;6.70;99.90;;;;;;5016242;28;20610;-75
2022/01/22 03:06:46;;;;;;;9.93;2.90;;;6.70;99.90;;;;;;5020387;28;20052;-75
2022/01/22 03:09:12;;;;;;;13.85;3.55;;;6.70;99.90;;;;;;5054051;28;20609;-76
2022/01/22 03:12:13;;;;;;;14.10;3.20;;;6.70;99.90;;;;;;5017666;28;20049;-75
2022/01/22 03:15:31;;;;;;;15.32;3.28;;;6.70;99.90;;;;;;5041832;28;20053;-75
2022/01/22 03:27:57;;;;;;;11.02;2.88;;;6.80;99.90;;;;;;5031883;28;20045;-75
2022/01/22 03:30:23;;;;;;;11.73;3.05;;;6.70;99.90;;;;;;5014435;28;20037;-74
2022/01/22 03:32:52;;;;;;;10.70;2.78;;;6.80;99.90;;;;;;5029236;28;20053;-75
2022/01/22 03:37:51;;;;;;;15.27;3.22;;;6.70;99.90;;;;;;5029327;28;20498;-75
2022/01/22 03:40:20;;;;;;;11.43;3.15;;;6.70;99.90;;;;;;5027880;28;20466;-75
2022/01/22 03:42:47;;;;;;;9.55;2.55;;;6.70;99.90;;;;;;5029267;28;20052;-75
2022/01/22 03:45:13;;;;;;;13.07;2.95;;;6.70;99.90;;;;;;5036732;28;20494;-75
2022/01/22 03:47:42;;;;;;;10.98;3.00;;;6.70;99.90;;;;;;5033407;28;22306;-75
2022/01/22 03:50:11;;;;;;;9.70;2.45;;;6.70;99.90;;;;;;5015528;28;20498;-75
2022/01/22 03:52:37;;;;;;;9.23;2.38;;;6.70;99.90;;;;;;5015537;28;20041;-75
2022/01/22 03:55:06;;;;;;;11.40;3.03;;;6.70;99.90;;;;;;5031838;28;20051;-75
2022/01/22 03:57:32;;;;;;;11.30;2.97;;;6.70;99.90;;;;;;5014118;28;20049;-75
2022/01/22 03:59:58;;;;;;;12.07;2.90;;;6.70;99.90;;;;;;5011362;28;20679;-75
2022/01/22 04:04:56;;;;;;;12.40;3.00;;;6.70;99.90;;;;;;5028090;28;20558;-75
2022/01/22 04:10:09;;;;;;;11.32;3.00;;;6.70;99.90;;;;;;5026610;28;20037;-75
2022/01/22 04:15:25;;;;;;;14.88;2.83;;;6.70;99.90;;;;;;5014787;28;20048;-75
2022/01/22 04:26:19;;;;;;;10.80;2.60;;;6.70;99.90;;;;;;5024715;28;20563;-75
2022/01/22 04:28:47;;;;;;;12.17;2.87;;;6.70;99.90;;;;;;5030771;28;20131;-75
2022/01/22 04:31:13;;;;;;;15.23;3.77;;;6.60;99.90;;;;;;5011249;28;20052;-75
2022/01/22 04:33:39;;;;;;;16.55;3.13;;;6.60;99.90;;;;;;5028985;28;20056;-75
2022/01/22 04:36:06;;;;;;;13.63;3.20;;;6.60;99.90;;;;;;5011367;28;20049;-75
2022/01/22 04:38:32;;;;;;;16.45;2.88;;;6.60;99.90;;;;;;5028135;28;20049;-75
2022/01/22 04:40:59;;;;;;;11.82;3.33;;;6.60;99.90;;;;;;5010103;28;20518;-75
2022/01/22 04:43:26;;;;;;;10.70;3.05;;;6.60;99.90;;;;;;5028051;28;20053;-75
2022/01/22 04:48:40;;;;;;;14.98;2.88;;;6.60;99.90;;;;;;5011061;28;20057;-75
2022/01/22 04:56:36;;;;;;;11.87;2.47;;;6.60;99.90;;;;;;5025128;28;20395;-75
2022/01/22 04:59:02;;;;;;;12.20;2.95;;;6.60;99.90;;;;;;5027926;28;20051;-75
2022/01/22 05:01:29;;;;;;;14.25;2.88;;;6.50;99.90;;;;;;5011432;28;20045;-75
2022/01/22 05:03:57;;;;;;;13.40;3.17;;;6.60;99.90;;;;;;5028721;28;20112;-74
2022/01/22 05:06:26;;;;;;;11.77;3.08;;;6.50;99.90;;;;;;5027912;28;20029;-75
2022/01/22 05:08:52;;;;;;;14.30;3.35;;;6.60;99.90;;;;;;5044565;28;20496;-75
2022/01/22 05:11:18;;;;;;;8.93;2.90;;;6.60;99.90;;;;;;4993146;28;20044;-75
2022/01/22 05:13:44;;;;;;;14.82;3.25;;;6.60;99.90;;;;;;5012509;28;20112;-75
2022/01/22 05:16:10;;;;;;;9.85;2.65;;;6.60;99.90;;;;;;5009945;28;20033;-74
2022/01/22 05:18:48;;;;;;;11.25;2.78;;;6.60;99.90;;;;;;5029560;28;20087;-75
2022/01/22 05:21:16;;;;;;;11.05;3.20;;;6.60;99.90;;;;;;5026276;28;20595;-75
2022/01/22 05:23:44;;;;;;;11.05;2.72;;;6.60;99.90;;;;;;5026120;28;20542;-75
2022/01/22 05:26:27;;;;;;;8.43;2.70;;;6.60;99.90;;;;;;5026589;28;20045;-75
2022/01/22 05:29:15;;;;;;;9.85;2.80;;;6.60;99.90;;;;;;5026850;28;20141;-75
2022/01/22 05:39:24;;;;;;;12.77;3.50;;;6.60;99.90;;;;;;5024935;28;20041;-74
2022/01/22 05:41:52;;;;;;;10.70;2.78;;;6.60;99.90;;;;;;4994019;28;20495;-75
2022/01/22 05:44:18;;;;;;;7.63;2.80;;;6.60;99.90;;;;;;5009585;28;20037;-75
2022/01/22 05:46:43;;;;;;;13.00;2.90;;;6.60;99.90;;;;;;5026630;28;20056;-75
2022/01/22 05:49:09;;;;;;;15.75;5.07;;;6.60;99.90;;;;;;5026395;28;20541;-75
2022/01/22 05:51:39;;;;;;;11.73;4.60;;;6.50;99.90;;;;;;5010160;28;20052;-75
2022/01/22 06:02:22;;;;;;;11.00;2.83;;;6.60;99.90;;;;;;5012069;28;20052;-74
2022/01/22 06:04:48;;;;;;;16.02;3.42;;;6.60;99.90;;;;;;5009722;28;20067;-75
2022/01/22 06:07:14;;;;;;;10.88;2.63;;;6.70;99.90;;;;;;5009638;28;20419;-75
2022/01/22 06:09:52;;;;;;;15.52;3.00;;;6.60;99.90;;;;;;4992696;28;20044;-74
2022/01/22 06:12:32;;;;;;;10.98;2.97;;;6.60;99.90;;;;;;5026147;28;20045;-75
2022/01/22 06:15:01;;;;;;;14.25;3.17;;;6.50;99.90;;;;;;5026404;28;20087;-75
2022/01/22 06:17:27;;;;;;;13.73;3.40;;;6.60;99.90;;;;;;5026492;28;20045;-75
2022/01/22 06:19:52;;;;;;;13.65;3.97;;;6.60;99.90;;;;;;5026125;28;20091;-75
2022/01/22 06:22:18;;;;;;;11.82;3.53;;;6.60;99.90;;;;;;5008800;28;20259;-75
2022/01/22 06:24:44;;;;;;;11.80;3.08;;;6.60;99.90;;;;;;4992348;28;20080;-75
2022/01/22 06:27:10;;;;;;;13.85;3.58;;;6.60;99.90;;;;;;5025871;28;20044;-75
2022/01/22 06:29:36;;;;;;;13.02;3.13;;;6.50;99.90;;;;;;5025578;28;20045;-75
2022/01/22 06:32:02;;;;;;;13.52;3.50;;;6.50;99.90;;;;;;5008039;28;20044;-75
2022/01/22 06:34:27;;;;;;;13.18;3.50;;;6.60;99.90;;;;;;5026132;28;20128;-75
2022/01/22 06:36:53;;;;;;;15.88;3.53;;;6.60;99.90;;;;;;5023002;28;20045;-75
2022/01/22 06:39:21;;;;;;;16.65;3.67;;;6.50;99.90;;;;;;5011357;28;20041;-75
2022/01/22 06:41:47;;;;;;;10.80;3.72;;;6.50;99.90;;;;;;4988914;28;20388;-75
2022/01/22 06:44:14;;;;;;;18.42;4.65;;;6.50;99.90;;;;;;4993876;28;20051;-75
2022/01/22 06:46:41;;;;;;;17.23;4.28;;;6.60;99.90;;;;;;5027334;28;20136;-75
2022/01/22 06:49:07;;;;;;;15.40;3.78;;;6.50;99.90;;;;;;5027131;28;20033;-75
2022/01/22 06:51:34;;;;;;;14.57;3.72;;;6.50;99.90;;;;;;5025303;28;21096;-75
2022/01/22 06:54:01;;;;;;;18.85;3.80;;;6.50;99.90;;;;;;5025652;28;20148;-75
2022/01/22 06:56:29;;;;;;;15.80;3.92;;;6.60;99.90;;;;;;5008259;28;20037;-75
2022/01/22 06:58:56;;;;;;;13.00;4.07;;;6.50;99.90;;;;;;5021974;28;20099;-75
2022/01/22 07:01:22;;;;;;;15.57;4.47;;;6.50;99.90;;;;;;5003641;28;20037;-75
2022/01/22 07:03:48;;;;;;;10.35;4.40;;;6.50;99.90;;;;;;5011083;28;20120;-75
2022/01/22 07:06:14;;;;;;;10.10;3.60;;;6.60;99.90;;;;;;5006511;28;20036;-75
2022/01/22 07:08:40;;;;;;;7.05;3.08;;;6.60;99.90;;;;;;5022094;28;20749;-76
2022/01/22 07:11:06;;;;;;;11.52;3.58;;;6.60;99.90;;;;;;5025818;28;20110;-75
2022/01/22 07:13:33;;;;;;;10.25;4.30;;;6.60;99.90;;;;;;5026480;28;20099;-75
2022/01/22 07:15:59;;;;;;;10.18;3.00;;;6.60;99.90;;;;;;5025209;28;20559;-75
2022/01/22 07:18:25;;;;;;;9.13;2.67;;;6.60;99.90;;;;;;5021843;28;20148;-75
2022/01/22 07:20:52;;;;;;;9.73;3.03;;;6.60;99.90;;;;;;5016163;28;20049;-75
2022/01/22 07:23:54;;;;;;;7.38;2.70;;;6.60;99.90;;;;;;5018050;28;20052;-75
2022/01/22 07:26:08;;;;;;;7.60;2.50;;;6.50;99.90;;;;;;5012540;28;20049;-74
2022/01/22 07:28:34;;;;;;;8.15;2.70;;;6.50;99.90;;;;;;5013621;28;20508;-75
2022/01/22 07:31:00;;;;;;;10.70;2.60;;;6.50;99.90;;;;;;5011697;28;20052;-76
2022/01/22 07:33:30;;;;;;;7.18;2.08;;;6.50;99.90;;;;;;5022573;28;20029;-75
2022/01/22 07:35:56;;;;;;;11.23;2.83;;;6.50;99.90;;;;;;5014836;28;20053;-74
2022/01/22 07:38:22;;;;;;;10.90;2.05;;;6.50;99.90;;;;;;5002276;28;20046;-74
2022/01/22 07:40:48;;;;;;;9.93;2.55;;;6.40;99.90;;;;;;5003489;28;20111;-75
2022/01/22 07:43:17;;;;;;;9.85;2.53;;;6.40;99.90;;;;;;5017948;28;20047;-75
2022/01/22 07:45:43;;;;;;;9.90;2.30;;;6.40;99.90;;;;;;5006668;28;20050;-74
2022/01/22 07:48:09;;;;;;;7.03;1.83;;;6.40;99.90;;;;;;5005891;28;20069;-75
2022/01/22 07:50:35;;;;;;;8.10;1.95;;;6.40;99.90;;;;;;5005407;28;20108;-74
2022/01/22 07:53:02;;;;;;;7.40;2.13;;;6.40;99.90;;;;;;5020651;28;20052;-75
2022/01/22 07:55:28;;;;;;;9.30;2.50;;;6.30;99.90;;;;;;5004408;28;20056;-74
2022/01/22 07:57:57;;;;;;;7.50;2.70;;;6.40;99.90;;;;;;5023382;28;20152;-74
2022/01/22 08:00:23;;;;;;;7.33;2.97;;;6.40;99.90;;;;;;5022996;28;20060;-74
2022/01/22 08:02:49;;;;;;;6.13;2.17;;;6.40;99.90;;;;;;5008529;28;20076;-75
2022/01/22 08:05:16;;;;;;;5.15;2.30;;;6.40;99.90;;;;;;5006914;28;20476;-75
2022/01/22 08:07:44;;;;;;;9.70;3.17;;;6.40;99.90;;;;;;5024654;28;20049;-75
2022/01/22 08:10:14;;;;;;;9.97;2.90;;;6.30;99.90;;;;;;4990803;28;20197;-75
2022/01/22 08:12:42;;;;;;;9.27;2.83;;;6.30;99.90;;;;;;5002862;28;20092;-75
2022/01/22 08:15:16;;;;;;;9.82;2.78;;;6.30;99.90;;;;;;4988238;28;20046;-74
2022/01/22 08:17:42;;;;;;;10.55;3.00;;;6.30;99.90;;;;;;5022209;28;20055;-75
2022/01/22 08:20:12;;;;;;;12.45;3.50;;;6.30;99.90;;;;;;5020781;28;20125;-74
2022/01/22 08:22:44;;;;;;;8.87;2.70;;;6.30;99.90;;;;;;5001156;28;20056;-75
2022/01/22 08:25:10;;;;;;;10.07;3.20;;;6.30;99.90;;;;;;5018917;28;20041;-74
2022/01/22 08:30:21;;;;;;;12.83;3.33;;;6.30;99.90;;;;;;5022862;28;20053;-73
2022/01/22 08:38:15;;;;;;;9.35;2.80;;;6.30;99.90;;;;;;5024378;28;20045;-74
2022/01/22 08:40:41;;;;;;;9.88;2.60;;;6.30;99.90;;;;;;5008154;28;20085;-74
2022/01/22 08:43:07;;;;;;;12.98;3.47;;;6.30;99.90;;;;;;5006923;28;20049;-74
2022/01/22 08:45:33;;;;;;;13.27;3.75;;;6.30;99.90;;;;;;5023999;28;20508;-74
2022/01/22 08:47:59;;;;;;;10.73;3.67;;;6.30;99.90;;;;;;5006917;28;20546;-74
2022/01/22 08:50:28;;;;;;;12.63;4.25;;;6.30;99.90;;;;;;5006666;28;20045;-74
2022/01/22 08:52:54;;;;;;;12.80;4.20;;;6.30;99.90;;;;;;4990868;28;20578;-75
2022/01/22 08:55:20;;;;;;;13.18;3.90;;;6.30;99.90;;;;;;4984017;28;20045;-76
2022/01/22 08:57:49;;;;;;;10.83;3.57;;;6.30;99.90;;;;;;5013638;28;20037;-76
2022/01/22 09:00:17;;;;;;;12.13;3.97;;;6.30;99.90;;;;;;4993954;28;20253;-75
2022/01/22 09:02:45;;;;;;;13.90;4.60;;;6.30;99.90;;;;;;5016431;28;20055;-75
2022/01/22 09:05:11;;;;;;;20.00;4.70;;;6.30;99.90;;;;;;4999673;28;20563;-76
2022/01/22 09:07:37;;;;;;;12.05;4.05;;;6.30;99.90;;;;;;5003897;28;20037;-76
2022/01/22 09:10:04;;;;;;;12.33;4.30;;;6.40;99.90;;;;;;5022309;28;20496;-76
2022/01/22 09:12:30;;;;;;;16.13;4.53;;;6.30;99.90;;;;;;5017084;28;20041;-76
2022/01/22 09:14:56;;;;;;;13.07;4.22;;;6.40;99.90;;;;;;5004975;28;20487;-76
2022/01/22 09:17:23;;;;;;;22.63;5.70;;;6.40;99.90;;;;;;4990237;28;20048;-76
2022/01/22 09:19:48;;;;;;;17.73;5.37;;;6.40;99.90;;;;;;5008688;28;20049;-76
2022/01/22 09:22:15;;;;;;;12.95;5.57;;;6.40;99.90;;;;;;4987472;28;20033;-75
2022/01/22 09:24:41;;;;;;;13.10;4.47;;;6.40;99.90;;;;;;5002607;28;20061;-76
2022/01/22 09:27:07;;;;;;;17.73;4.90;;;6.40;99.90;;;;;;5006908;28;20029;-76
2022/01/22 09:29:35;;;;;;;22.30;5.60;;;6.40;99.90;;;;;;5005933;28;20045;-75
2022/01/22 09:32:01;;;;;;;18.13;6.07;;;6.50;99.90;;;;;;5038525;28;20045;-76
2022/01/22 09:34:27;;;;;;;12.80;5.30;;;6.40;99.90;;;;;;5006557;28;20083;-76
2022/01/22 09:36:52;;;;;;;13.70;5.25;;;6.50;99.90;;;;;;5023135;28;20061;-75
2022/01/22 09:39:18;;;;;;;15.70;5.97;;;6.50;99.90;;;;;;5021894;28;20049;-76
2022/01/22 09:41:45;;;;;;;16.38;5.82;;;6.50;99.90;;;;;;5015600;28;20132;-75
2022/01/22 09:44:12;;;;;;;14.93;5.07;;;6.50;99.90;;;;;;5005694;28;20045;-76
2022/01/22 09:46:40;;;;;;;15.07;5.77;;;6.50;99.90;;;;;;4985634;28;20068;-75
2022/01/22 09:49:06;;;;;;;16.83;6.00;;;6.60;99.90;;;;;;5021363;28;20045;-76
2022/01/22 09:51:32;;;;;;;14.15;5.13;;;6.60;99.90;;;;;;5003554;28;20455;-76
2022/01/22 09:53:58;;;;;;;18.83;5.72;;;6.60;99.90;;;;;;5016559;28;20570;-75
2022/01/22 09:56:28;;;;;;;16.87;6.30;;;6.60;99.90;;;;;;4988968;28;20046;-76
2022/01/22 09:58:54;;;;;;;17.30;5.32;;;6.70;99.90;;;;;;5017287;28;20050;-75
2022/01/22 10:01:27;;;;;;;20.38;5.07;;;6.70;99.90;;;;;;5004635;28;20106;-76
2022/01/22 10:03:55;;;;;;;17.50;5.22;;;6.70;99.90;;;;;;5003962;28;20099;-75
2022/01/22 10:06:30;;;;;;;14.97;5.03;;;6.70;99.90;;;;;;5003609;28;20242;-76
2022/01/22 10:09:09;;;;;;;20.58;5.57;;;6.70;99.90;;;;;;5016020;28;20057;-75
2022/01/22 10:11:35;;;;;;;15.33;5.30;;;6.70;99.90;;;;;;4999746;28;20489;-75
2022/01/22 10:14:02;;;;;;;23.63;7.05;;;6.60;99.90;;;;;;5017982;28;20455;-74
2022/01/22 10:16:40;;;;;;;12.47;5.10;;;6.60;99.90;;;;;;5003443;28;20057;-74
2022/01/22 10:19:21;;;;;;;18.20;5.80;;;6.60;99.90;;;;;;4999851;28;20416;-74
2022/01/22 10:21:58;;;;;;;16.00;6.15;;;6.70;99.90;;;;;;5019469;28;20072;-74
2022/01/22 10:24:39;;;;;;;17.10;6.47;;;6.60;99.90;;;;;;5005149;28;20046;-74
2022/01/22 10:27:18;;;;;;;18.75;6.45;;;6.60;99.90;;;;;;5021065;28;20685;-74
2022/01/22 10:29:52;;;;;;;13.45;5.70;;;6.70;99.90;;;;;;5018255;28;20220;-74
2022/01/22 10:32:29;;;;;;;21.27;6.68;;;6.70;99.90;;;;;;5020528;28;20057;-74
2022/01/22 10:35:10;;;;;;;14.35;5.35;;;6.70;99.90;;;;;;5024206;28;20037;-74
2022/01/22 10:37:37;;;;;;;20.77;6.32;;;6.70;99.90;;;;;;5024761;28;20087;-74
2022/01/22 10:40:27;;;;;;;17.08;5.82;;;6.70;99.90;;;;;;5024463;28;20435;-74
2022/01/22 10:43:16;;;;;;;13.88;4.88;;;6.80;99.90;;;;;;5023960;28;20546;-74
2022/01/22 10:46:02;;;;;;;20.92;5.53;;;6.80;99.90;;;;;;5024189;28;20526;-74
2022/01/22 10:48:29;;;;;;;17.80;5.60;;;6.80;99.90;;;;;;5025378;28;20152;-74
2022/01/22 10:51:06;;;;;;;16.08;5.57;;;6.80;99.90;;;;;;5025283;28;20101;-74
2022/01/22 10:53:42;;;;;;;18.43;5.03;;;6.80;99.90;;;;;;5026695;28;20435;-74
2022/01/22 10:56:09;;;;;;;14.05;5.18;;;6.80;99.90;;;;;;5026781;28;20156;-74
2022/01/22 10:58:46;;;;;;;21.20;5.57;;;6.80;99.90;;;;;;5026293;28;20063;-74
2022/01/22 11:01:13;;;;;;;15.82;4.70;;;6.80;99.90;;;;;;5027040;28;20053;-74
2022/01/22 11:03:39;;;;;;;14.38;5.28;;;6.80;99.90;;;;;;4991891;28;20381;-74
2022/01/22 11:06:08;;;;;;;17.40;5.20;;;6.80;99.90;;;;;;5025335;28;20087;-74
2022/01/22 11:08:35;;;;;;;14.60;4.67;;;6.90;99.90;;;;;;4977093;28;20124;-74
2022/01/22 11:11:01;;;;;;;17.85;4.68;;;6.90;99.90;;;;;;5023019;28;20045;-74
2022/01/22 11:13:27;;;;;;;14.35;4.93;;;6.90;99.90;;;;;;5025368;28;20037;-74
2022/01/22 11:15:57;;;;;;;20.42;5.88;;;6.90;99.90;;;;;;5024813;28;20051;-74
2022/01/22 11:18:27;;;;;;;16.80;5.13;;;6.90;99.90;;;;;;4992459;28;20533;-74
2022/01/22 11:20:53;;;;;;;14.90;5.07;;;6.90;99.90;;;;;;5007453;28;20068;-74
2022/01/22 11:23:20;;;;;;;12.40;4.55;;;6.90;99.90;;;;;;4994750;28;20353;-74
2022/01/22 11:25:46;;;;;;;12.95;4.13;;;6.90;99.90;;;;;;4996963;28;20041;-74
2022/01/22 11:28:13;;;;;;;13.18;3.92;;;6.90;99.90;;;;;;4998696;28;20103;-74
2022/01/22 11:30:45;;;;;;;15.90;4.85;;;6.90;99.90;;;;;;5026413;28;20048;-74
2022/01/22 11:33:15;;;;;;;17.10;4.28;;;6.90;99.90;;;;;;5027831;28;20483;-74
2022/01/22 11:35:57;;;;;;;15.80;4.63;;;6.90;99.90;;;;;;5027944;28;20788;-73
2022/01/22 11:38:28;;;;;;;15.25;5.00;;;6.90;99.90;;;;;;5028586;28;20102;-74
2022/01/22 11:41:06;;;;;;;17.88;5.00;;;6.90;99.90;;;;;;5010818;28;20553;-74
2022/01/22 11:44:10;;;;;;;17.15;5.45;;;6.90;99.90;;;;;;5026325;28;20623;-74
2022/01/22 11:46:43;;;;;;;18.88;6.15;;;6.90;99.90;;;;;;5001254;28;20419;-74
2022/01/22 11:49:31;;;;;;;19.90;5.80;;;6.90;99.90;;;;;;5011703;28;20057;-74
2022/01/22 11:52:12;;;;;;;16.80;5.88;;;6.90;99.90;;;;;;5010626;28;20250;-74
2022/01/22 11:55:01;;;;;;;14.50;6.25;;;6.90;99.90;;;;;;5028959;28;20442;-73
2022/01/22 11:57:32;;;;;;;17.05;6.32;;;6.90;99.90;;;;;;5029625;28;20032;-74
2022/01/22 12:00:16;;;;;;;18.23;7.60;;;6.90;99.90;;;;;;5028334;28;20067;-73
2022/01/22 12:02:42;;;;;;;21.85;8.15;;;6.80;99.90;;;;;;5027714;28;20051;-74
2022/01/22 12:05:08;;;;;;;24.38;8.60;;;6.80;99.90;;;;;;5012006;28;20037;-74
2022/01/22 12:07:37;;;;;;;19.20;7.80;;;6.80;99.90;;;;;;5011159;28;20060;-74
2022/01/22 12:16:13;;;;;;;23.13;8.65;;;6.90;99.90;;;;;;5026714;28;20045;-73
2022/01/22 12:18:46;;;;;;;25.40;9.35;;;6.90;99.90;;;;;;4978916;28;20515;-74
2022/01/22 12:21:30;;;;;;;20.55;9.02;;;6.90;99.90;;;;;;5009450;28;20048;-74
2022/01/22 12:23:57;;;;;;;27.35;10.30;;;6.90;99.90;;;;;;4995077;28;20041;-74
2022/01/22 12:26:44;;;;;;;27.13;9.90;;;6.90;99.90;;;;;;5010875;28;20055;-73
2022/01/22 12:29:37;;;;;;;19.95;8.68;;;6.90;99.90;;;;;;5011408;28;20041;-74
2022/01/22 12:32:22;;;;;;;17.23;8.20;;;7.00;99.90;;;;;;5021852;28;20543;-74
2022/01/22 12:35:05;;;;;;;18.98;9.57;;;7.00;99.90;;;;;;5025409;28;20558;-74
2022/01/22 12:37:31;;;;;;;16.27;8.85;;;7.00;99.90;;;;;;5026903;28;20041;-74
2022/01/22 12:39:58;;;;;;;17.98;9.10;;;6.90;99.90;;;;;;5026689;28;20078;-73
2022/01/22 12:42:52;;;;;;;19.27;9.68;;;7.00;99.90;;;;;;5009984;28;20071;-74
2022/01/22 12:45:19;;;;;;;15.90;7.68;;;7.00;99.90;;;;;;5010716;28;20045;-74
2022/01/22 12:47:47;;;;;;;19.55;7.78;;;7.00;99.90;;;;;;5009606;28;20061;-73
2022/01/22 12:50:14;;;;;;;20.77;8.00;;;7.00;99.90;;;;;;5027623;28;20041;-74
2022/01/22 12:52:45;;;;;;;22.65;8.10;;;7.00;99.90;;;;;;5025074;28;20055;-74
2022/01/22 12:55:48;;;;;;;24.00;8.80;;;7.00;99.90;;;;;;5008888;28;20037;-74
2022/01/22 12:58:37;;;;;;;19.75;7.22;;;7.00;99.90;;;;;;5012831;28;20041;-74
2022/01/22 13:01:10;;;;;;;18.48;6.47;;;7.00;99.90;;;;;;5026671;28;20045;-74
2022/01/22 13:03:39;;;;;;;16.95;6.78;;;7.10;99.90;;;;;;5026077;28;20402;-74
2022/01/22 13:06:05;;;;;;;14.52;6.05;;;7.10;99.90;;;;;;5010096;28;20175;-74
2022/01/22 13:08:32;;;;;;;15.68;5.43;;;7.10;99.90;;;;;;5026135;28;20529;-74
2022/01/22 13:11:01;;;;;;;14.77;5.20;;;7.10;99.90;;;;;;4992067;28;20076;-74
2022/01/22 13:13:28;;;;;;;16.50;5.70;;;7.10;99.90;;;;;;5007968;28;20438;-74
2022/01/22 13:16:11;;;;;;;13.40;4.47;;;7.10;99.90;;;;;;5026287;28;20442;-74
2022/01/22 13:18:56;;;;;;;15.93;4.90;;;7.10;99.90;;;;;;5011174;28;20048;-74
2022/01/22 13:21:23;;;;;;;14.02;4.60;;;7.10;99.90;;;;;;5008009;28;20406;-74
2022/01/22 13:24:10;;;;;;;13.50;4.40;;;7.00;99.90;;;;;;4993678;28;20045;-73
2022/01/22 13:26:59;;;;;;;10.55;4.50;;;7.00;99.90;;;;;;5042164;28;20055;-74
2022/01/22 13:29:34;;;;;;;14.88;5.13;;;7.00;99.90;;;;;;5025372;28;20048;-74
2022/01/22 13:32:06;;;;;;;14.05;5.30;;;6.90;99.90;;;;;;5039949;28;20037;-74
2022/01/22 13:34:50;;;;;;;13.32;5.28;;;6.90;99.90;;;;;;5025376;28;20092;-74
2022/01/22 13:47:56;;;;;;;10.88;3.50;;;6.90;99.90;;;;;;5006593;28;20123;-75
2022/01/22 13:50:22;;;;;;;17.42;4.00;;;6.90;99.90;;;;;;5006056;28;20368;-75
2022/01/22 13:52:49;;;;;;;13.18;3.65;;;7.10;99.90;;;;;;5004037;28;20044;-76
2022/01/22 13:55:18;;;;;;;16.00;4.50;;;6.90;99.90;;;;;;5001901;28;20053;-76
2022/01/22 13:57:47;;;;;;;15.48;4.07;;;6.90;99.90;;;;;;4989182;28;20075;-76
2022/01/22 14:00:16;;;;;;;12.27;4.03;;;6.90;99.90;;;;;;5014970;28;20040;-76
2022/01/22 14:05:31;;;;;;;13.02;4.30;;;7.00;99.90;;;;;;5021433;28;20404;-76
2022/01/22 14:08:07;;;;;;;11.70;4.40;;;6.90;99.90;;;;;;5005685;28;20052;-76
2022/01/22 14:10:34;;;;;;;17.02;7.63;;;6.90;99.90;;;;;;5014672;28;20053;-75
2022/01/22 14:13:11;;;;;;;13.65;4.95;;;6.90;99.90;;;;;;5009643;28;20368;-76
2022/01/22 14:15:41;;;;;;;14.23;5.70;;;6.80;99.90;;;;;;5021081;28;20048;-77
2022/01/22 15:01:56;;;;;;;10.40;3.10;;;6.60;99.90;;;;;;6249586;22;1452216;-80
2022/01/22 15:04:23;;;;;;;11.23;2.85;;;6.90;99.90;;;;;;6280300;22;20086;-81
2022/01/22 15:06:49;;;;;;;9.13;2.67;;;6.80;99.90;;;;;;6255086;22;20019;-80
2022/01/22 15:09:16;;;;;;;14.02;3.28;;;6.80;99.90;;;;;;6230517;22;20728;-81
2022/01/22 15:11:42;;;;;;;9.57;2.95;;;6.70;99.90;;;;;;6256107;22;20375;-81
2022/01/22 15:14:08;;;;;;;10.07;2.80;;;6.70;99.90;;;;;;6232340;22;20503;-80
2022/01/22 15:16:45;;;;;;;10.02;3.60;;;6.70;99.90;;;;;;6256428;22;20022;-81
2022/01/22 15:19:14;;;;;;;12.18;3.40;;;6.70;99.90;;;;;;6231484;22;20026;-81
2022/01/22 15:21:41;;;;;;;13.18;4.03;;;6.70;99.90;;;;;;6255158;22;20022;-81
2022/01/22 15:24:07;;;;;;;7.30;2.83;;;6.70;99.90;;;;;;6280462;22;20090;-82
2022/01/22 15:26:33;;;;;;;9.27;3.20;;;6.70;99.90;;;;;;6231153;22;20454;-81
2022/01/22 15:28:59;;;;;;;11.80;3.15;;;6.70;99.90;;;;;;6205503;22;20019;-81
2022/01/22 15:34:26;;;;;;;10.13;3.20;;;6.60;99.90;;;;;;6257217;22;20320;-81
2022/01/22 15:36:53;;;;;;;10.35;2.88;;;6.60;99.90;;;;;;6282405;22;20355;-81
2022/01/22 15:39:20;;;;;;;10.35;3.45;;;6.60;99.90;;;;;;6230397;22;20211;-81
2022/01/22 15:41:46;;;;;;;11.13;3.50;;;6.60;99.90;;;;;;6255476;22;20019;-81